Terminal Aerodrome Forecast
Issued by NWS Sioux Falls, SD

Home | Current Version | Previous Version | Graphics & Text | Print | Product List | Glossary Off
Versions: 1 2 3 4 5 6 7 8 9 10 11 12 13 14 15 16 17 18 19 20 21 22 23 24 25 26 27 28 29 30 31 32 33 34 35 36 37 38 39 40 41

000
FTUS43 KFSD 111140
TAFSUX
TAF
KSUX 111140Z 1112/1212 11005KT P6SM OVC035
     FM111800 14009KT P6SM -SN OVC025
     FM111930 16010KT 2SM -SN BR OVC009
     FM120000 11007KT 5SM -SN BR OVC015
     FM120300 05006KT P6SM OVC012
     FM120700 35009KT P6SM OVC015
     FM121000 35013KT P6SM OVC025=

USA.gov is the U.S. government's official web portal to all federal, state and local government web resources and services.